PWSweather.com
Personal Weather Stations
Station Observations
JTOWN
Canterbrook Farms, Jeffersontown, KY 40299

Canterbrook FarmsJeffersontown, KY 40299

Lat: 38.155364, Lon: -85.47956

Elevation: 510

Station Type: Davis Vantage Pro2

http://www.canterbrookfarms.org/wx

Latest ConditionsUpdated 9:15:01 AM EST Monday, Jan 26, 2015
Currently Today's Max Today's Min Today's Average
Temperature 25.0°F-3.9°C 39.6°F4.2°C 24.1°F-4.4°C 28.5°F-1.9°C
Dew Point 19.1°F-7.2°C 38.0°F3.3°C 18.2°F-7.7°C 24.3°F-4.3°C
Winds 8.0 mph NW12.9 kmh NW 10.0 mph NW16.1 kmh NW - 7.5 mph 12.1 kmh
Wind Gusts 12.0 mph19.3 kmh 20.0 mph32.2 kmh - -
Humidity 78% 94% 78% 84%
Pressure 29.93 in1013.5 mb 29.93 in1013.5 mb 29.68 in1005.1 mb -
Hour Temp Dew Point Humidity Winds Wind Gusts Pressure Precip Precip Rate Daily Precip Total
09:15 AM 25.0°F-3.9°C 19.1°F-7.2°C 78% 8.0 mph NW12.9 kmh NW 12.0 mph19.3 kmh 29.93 in1013.5 mb 0.00 in0.0 mm 0.00 in/hr0.0 mm/hr 0.00 in0.0 mm
09:00 AM 24.8°F-4.0°C 18.9°F-7.3°C 78% 6.0 mph NW9.7 kmh NW 13.0 mph20.9 kmh 29.93 in1013.5 mb 0.00 in0.0 mm 0.00 in/hr0.0 mm/hr 0.00 in0.0 mm
08:45 AM 24.7°F-4.1°C 19.1°F-7.2°C 79% 7.0 mph NW11.3 kmh NW 13.0 mph20.9 kmh 29.92 in1013.2 mb 0.00 in0.0 mm 0.00 in/hr0.0 mm/hr 0.00 in0.0 mm
08:30 AM 24.7°F-4.1°C 19.4°F-7.0°C 80% 7.0 mph NW11.3 kmh NW 14.0 mph22.5 kmh 29.92 in1013.2 mb 0.00 in0.0 mm 0.00 in/hr0.0 mm/hr 0.00 in0.0 mm
08:15 AM 24.5°F-4.2°C 19.2°F-7.1°C 80% 5.0 mph NW8.0 kmh NW 8.0 mph12.9 kmh 29.92 in1013.2 mb 0.00 in0.0 mm 0.00 in/hr0.0 mm/hr 0.00 in0.0 mm
08:00 AM 24.4°F-4.2°C 19.1°F-7.2°C 80% 5.0 mph NW8.0 kmh NW 11.0 mph17.7 kmh 29.92 in1013.2 mb 0.00 in0.0 mm 0.00 in/hr0.0 mm/hr 0.00 in0.0 mm
07:45 AM 24.1°F-4.4°C 18.5°F-7.5°C 79% 6.0 mph NW9.7 kmh NW 13.0 mph20.9 kmh 29.91 in1012.9 mb 0.00 in0.0 mm 0.00 in/hr0.0 mm/hr 0.00 in0.0 mm
07:30 AM 24.1°F-4.4°C 18.2°F-7.7°C 78% 6.0 mph NNW9.7 kmh NNW 15.0 mph24.1 kmh 29.90 in1012.5 mb 0.00 in0.0 mm 0.00 in/hr0.0 mm/hr 0.00 in0.0 mm
07:15 AM 24.2°F-4.3°C 18.3°F-7.6°C 78% 9.0 mph NW14.5 kmh NW 17.0 mph27.4 kmh 29.90 in1012.5 mb 0.00 in0.0 mm 0.00 in/hr0.0 mm/hr 0.00 in0.0 mm
07:00 AM 24.5°F-4.2°C 18.9°F-7.3°C 79% 10.0 mph NW16.1 kmh NW 17.0 mph27.4 kmh 29.89 in1012.2 mb 0.00 in0.0 mm 0.00 in/hr0.0 mm/hr 0.00 in0.0 mm
06:45 AM 24.8°F-4.0°C 19.5°F-6.9°C 80% 8.0 mph NW12.9 kmh NW 17.0 mph27.4 kmh 29.88 in1011.9 mb 0.00 in0.0 mm 0.00 in/hr0.0 mm/hr 0.00 in0.0 mm
06:30 AM 24.8°F-4.0°C 19.5°F-6.9°C 80% 9.0 mph NW14.5 kmh NW 15.0 mph24.1 kmh 29.87 in1011.5 mb 0.00 in0.0 mm 0.00 in/hr0.0 mm/hr 0.00 in0.0 mm
06:15 AM 25.0°F-3.9°C 20.0°F-6.7°C 81% 7.0 mph NW11.3 kmh NW 13.0 mph20.9 kmh 29.85 in1010.8 mb 0.00 in0.0 mm 0.00 in/hr0.0 mm/hr 0.00 in0.0 mm
06:00 AM 25.1°F-3.8°C 19.8°F-6.8°C 80% 10.0 mph NW16.1 kmh NW 18.0 mph29.0 kmh 29.85 in1010.8 mb 0.00 in0.0 mm 0.00 in/hr0.0 mm/hr 0.00 in0.0 mm
05:45 AM 25.6°F-3.6°C 20.6°F-6.3°C 81% 7.0 mph NW11.3 kmh NW 16.0 mph25.7 kmh 29.85 in1010.8 mb 0.00 in0.0 mm 0.00 in/hr0.0 mm/hr 0.00 in0.0 mm
05:30 AM 26.0°F-3.3°C 21.3°F-5.9°C 82% 8.0 mph NW12.9 kmh NW 14.0 mph22.5 kmh 29.85 in1010.8 mb 0.00 in0.0 mm 0.00 in/hr0.0 mm/hr 0.00 in0.0 mm
05:15 AM 26.3°F-3.2°C 21.8°F-5.7°C 83% 9.0 mph NW14.5 kmh NW 16.0 mph25.7 kmh 29.84 in1010.5 mb 0.00 in0.0 mm 0.00 in/hr0.0 mm/hr 0.00 in0.0 mm
05:00 AM 26.7°F-2.9°C 22.2°F-5.4°C 83% 6.0 mph NW9.7 kmh NW 12.0 mph19.3 kmh 29.84 in1010.5 mb 0.00 in0.0 mm 0.00 in/hr0.0 mm/hr 0.00 in0.0 mm
04:45 AM 27.2°F-2.7°C 22.7°F-5.2°C 83% 9.0 mph NW14.5 kmh NW 15.0 mph24.1 kmh 29.82 in1009.8 mb 0.00 in0.0 mm 0.00 in/hr0.0 mm/hr 0.00 in0.0 mm
04:30 AM 27.5°F-2.5°C 23.0°F-5.0°C 83% 6.0 mph NW9.7 kmh NW 11.0 mph17.7 kmh 29.81 in1009.5 mb 0.00 in0.0 mm 0.00 in/hr0.0 mm/hr 0.00 in0.0 mm
04:15 AM 27.6°F-2.4°C 23.1°F-4.9°C 83% 9.0 mph NW14.5 kmh NW 16.0 mph25.7 kmh 29.81 in1009.5 mb 0.00 in0.0 mm 0.00 in/hr0.0 mm/hr 0.00 in0.0 mm
04:00 AM 27.8°F-2.3°C 23.3°F-4.8°C 83% 9.0 mph NW14.5 kmh NW 16.0 mph25.7 kmh 29.80 in1009.1 mb 0.00 in0.0 mm 0.00 in/hr0.0 mm/hr 0.00 in0.0 mm
03:45 AM 27.9°F-2.3°C 23.7°F-4.6°C 84% 10.0 mph NW16.1 kmh NW 16.0 mph25.7 kmh 29.80 in1009.1 mb 0.00 in0.0 mm 0.00 in/hr0.0 mm/hr 0.00 in0.0 mm
03:30 AM 28.4°F-2.0°C 24.5°F-4.2°C 85% 10.0 mph NW16.1 kmh NW 17.0 mph27.4 kmh 29.79 in1008.8 mb 0.00 in0.0 mm 0.00 in/hr0.0 mm/hr 0.00 in0.0 mm
03:15 AM 28.5°F-1.9°C 24.8°F-4.0°C 86% 9.0 mph NW14.5 kmh NW 18.0 mph29.0 kmh 29.77 in1008.1 mb 0.00 in0.0 mm 0.00 in/hr0.0 mm/hr 0.00 in0.0 mm
03:00 AM 29.0°F-1.7°C 25.9°F-3.4°C 88% 7.0 mph NW11.3 kmh NW 15.0 mph24.1 kmh 29.77 in1008.1 mb 0.00 in0.0 mm 0.00 in/hr0.0 mm/hr 0.00 in0.0 mm
02:45 AM 29.1°F-1.6°C 26.0°F-3.3°C 88% 6.0 mph NW9.7 kmh NW 12.0 mph19.3 kmh 29.76 in1007.8 mb 0.00 in0.0 mm 0.00 in/hr0.0 mm/hr 0.00 in0.0 mm
02:30 AM 29.4°F-1.4°C 26.3°F-3.2°C 88% 9.0 mph NW14.5 kmh NW 17.0 mph27.4 kmh 29.76 in1007.8 mb 0.00 in0.0 mm 0.00 in/hr0.0 mm/hr 0.00 in0.0 mm
02:15 AM 30.6°F-0.8°C 27.7°F-2.4°C 89% 8.0 mph NW12.9 kmh NW 18.0 mph29.0 kmh 29.75 in1007.5 mb 0.00 in0.0 mm 0.00 in/hr0.0 mm/hr 0.00 in0.0 mm
02:00 AM 31.3°F-0.4°C 28.4°F-2.0°C 89% 7.0 mph NW11.3 kmh NW 16.0 mph25.7 kmh 29.74 in1007.1 mb 0.00 in0.0 mm 0.00 in/hr0.0 mm/hr 0.00 in0.0 mm
01:45 AM 32.1°F0.1°C 29.5°F-1.4°C 90% 7.0 mph NW11.3 kmh NW 20.0 mph32.2 kmh 29.74 in1007.1 mb 0.00 in0.0 mm 0.00 in/hr0.0 mm/hr 0.00 in0.0 mm
01:30 AM 32.7°F0.4°C 30.4°F-0.9°C 91% 8.0 mph NW12.9 kmh NW 15.0 mph24.1 kmh 29.73 in1006.8 mb 0.00 in0.0 mm 0.00 in/hr0.0 mm/hr 0.00 in0.0 mm
01:15 AM 33.5°F0.8°C 31.2°F-0.4°C 91% 8.0 mph NW12.9 kmh NW 14.0 mph22.5 kmh 29.71 in1006.1 mb 0.00 in0.0 mm 0.00 in/hr0.0 mm/hr 0.00 in0.0 mm
01:00 AM 34.9°F1.6°C 32.5°F0.3°C 91% 8.0 mph NW12.9 kmh NW 16.0 mph25.7 kmh 29.71 in1006.1 mb 0.00 in0.0 mm 0.00 in/hr0.0 mm/hr 0.00 in0.0 mm
12:45 AM 37.3°F2.9°C 35.2°F1.8°C 92% 9.0 mph NW14.5 kmh NW 15.0 mph24.1 kmh 29.70 in1005.8 mb 0.00 in0.0 mm 0.00 in/hr0.0 mm/hr 0.00 in0.0 mm
12:30 AM 39.1°F3.9°C 37.2°F2.9°C 93% 5.0 mph NW8.0 kmh NW 11.0 mph17.7 kmh 29.69 in1005.4 mb 0.00 in0.0 mm 0.00 in/hr0.0 mm/hr 0.00 in0.0 mm
12:15 AM 39.3°F4.1°C 37.4°F3.0°C 93% 4.0 mph NW6.4 kmh NW 10.0 mph16.1 kmh 29.68 in1005.1 mb 0.00 in0.0 mm 0.00 in/hr0.0 mm/hr 0.00 in0.0 mm
12:00 AM 39.6°F4.2°C 38.0°F3.3°C 94% 4.0 mph NW6.4 kmh NW 10.0 mph16.1 kmh 29.68 in1005.1 mb 0.00 in0.0 mm 0.00 in/hr0.0 mm/hr 0.11 in2.8 mm